createdAt,value
2023-04-30T00:01:22.446Z,100204.22
2023-04-30T00:03:49.097Z,100203.69
2023-04-30T00:06:16.121Z,100208.41
2023-04-30T00:08:42.678Z,100211.38
2023-04-30T00:11:09.288Z,100210.16
2023-04-30T00:13:35.901Z,100211.47
2023-04-30T00:16:02.492Z,100213.22
2023-04-30T00:18:29.036Z,100213.59
2023-04-30T00:20:55.718Z,100212.06
2023-04-30T00:23:22.264Z,100217.13
2023-04-30T00:25:48.951Z,100215.50
2023-04-30T00:28:15.512Z,100219.22
2023-04-30T00:30:42.181Z,100216.88
2023-04-30T00:33:08.801Z,100218.91
2023-04-30T00:35:35.498Z,100210.56
2023-04-30T00:38:02.093Z,100219.38
2023-04-30T00:40:28.918Z,100216.28
2023-04-30T00:42:55.980Z,100209.50
2023-04-30T00:45:23.484Z,100216.03
2023-04-30T00:47:50.293Z,100215.59
2023-04-30T00:50:17.021Z,100211.19
2023-04-30T00:52:44.447Z,100215.59
2023-04-30T00:55:14.626Z,100215.19
2023-04-30T00:57:41.317Z,100206.94
2023-04-30T01:00:11.481Z,100212.34
2023-04-30T01:02:38.551Z,100207.22
2023-04-30T01:05:06.198Z,100218.53
2023-04-30T01:07:34.788Z,100204.50
2023-04-30T01:10:02.443Z,100214.00
2023-04-30T01:12:44.702Z,100199.28
2023-04-30T01:15:19.210Z,100199.66
2023-04-30T01:17:56.694Z,100200.34
2023-04-30T01:20:24.741Z,100205.47
2023-04-30T01:22:51.480Z,100212.78
2023-04-30T01:25:36.523Z,100213.44
2023-04-30T01:28:09.784Z,100208.63
2023-04-30T01:30:38.155Z,100212.97
2023-04-30T01:33:04.874Z,100214.38
2023-04-30T01:35:41.899Z,100216.03
2023-04-30T01:38:19.953Z,100217.13
2023-04-30T01:41:17.457Z,100214.22
2023-04-30T01:44:02.668Z,100219.75
2023-04-30T01:46:31.142Z,100219.56
2023-04-30T01:49:46.616Z,100220.41
2023-04-30T01:52:20.904Z,100213.06
2023-04-30T01:55:01.216Z,100222.81
2023-04-30T01:58:07.381Z,100217.31
2023-04-30T02:00:34.015Z,100210.13
2023-04-30T02:03:00.755Z,100219.31
2023-04-30T02:05:27.497Z,100221.06
2023-04-30T02:07:54.101Z,100218.63
2023-04-30T02:10:25.721Z,100229.00
2023-04-30T02:12:53.312Z,100217.97
2023-04-30T02:15:19.935Z,100215.63
2023-04-30T02:17:46.821Z,100213.13
2023-04-30T02:20:13.784Z,100202.69
2023-04-30T02:22:40.606Z,100207.41
2023-04-30T02:25:07.545Z,100202.59
2023-04-30T02:27:35.488Z,100209.41
2023-04-30T02:30:02.568Z,100220.44
2023-04-30T02:32:29.630Z,100217.16
2023-04-30T02:34:56.500Z,100215.59
2023-04-30T02:37:23.463Z,100218.16
2023-04-30T02:39:51.445Z,100215.47
2023-04-30T02:42:18.057Z,100226.78
2023-04-30T02:44:44.708Z,100221.81
2023-04-30T02:47:11.339Z,100225.09
2023-04-30T02:49:37.918Z,100227.78
2023-04-30T02:52:04.627Z,100229.88
2023-04-30T02:54:31.183Z,100229.88
2023-04-30T02:56:57.702Z,100232.56
2023-04-30T02:59:24.463Z,100243.97
2023-04-30T03:01:51.117Z,100241.44
2023-04-30T03:04:17.745Z,100235.94
2023-04-30T03:06:44.482Z,100235.50
2023-04-30T03:09:11.132Z,100234.53
2023-04-30T03:11:37.897Z,100225.47
2023-04-30T03:14:07.839Z,100230.84
2023-04-30T03:16:34.601Z,100228.56
2023-04-30T03:19:01.231Z,100218.81
2023-04-30T03:21:27.768Z,100225.63
2023-04-30T03:23:54.304Z,100223.66
2023-04-30T03:26:21.260Z,100223.06
2023-04-30T03:28:47.914Z,100219.25
2023-04-30T03:31:14.689Z,100232.41
2023-04-30T03:33:41.357Z,100237.53
2023-04-30T03:36:08.011Z,100234.31
2023-04-30T03:38:34.576Z,100223.16
2023-04-30T03:41:01.139Z,100223.88
2023-04-30T03:43:27.700Z,100237.16
2023-04-30T03:45:54.329Z,100227.03
2023-04-30T03:48:21.424Z,100218.66
2023-04-30T03:50:48.108Z,100224.63
2023-04-30T03:53:14.696Z,100222.69
2023-04-30T03:55:41.722Z,100228.78
2023-04-30T03:58:08.394Z,100223.88
2023-04-30T04:00:35.107Z,100233.94
2023-04-30T04:03:01.793Z,100231.97
2023-04-30T04:05:29.273Z,100230.88
2023-04-30T04:07:55.895Z,100231.59
2023-04-30T04:10:22.493Z,100221.84
2023-04-30T04:12:49.154Z,100236.72
2023-04-30T04:15:15.730Z,100237.84
2023-04-30T04:17:42.300Z,100242.66
2023-04-30T04:20:10.523Z,100248.19
2023-04-30T04:22:38.094Z,100254.25
2023-04-30T04:25:04.936Z,100251.53
2023-04-30T04:27:31.490Z,100256.63
2023-04-30T04:29:58.138Z,100252.75
2023-04-30T04:32:24.784Z,100248.47
2023-04-30T04:34:54.245Z,100251.41
2023-04-30T04:37:20.855Z,100258.63
2023-04-30T04:39:47.434Z,100263.97
2023-04-30T04:42:16.594Z,100269.47
2023-04-30T04:44:43.921Z,100275.13
2023-04-30T04:47:12.669Z,100282.38
2023-04-30T04:49:39.259Z,100284.63
2023-04-30T04:52:06.514Z,100286.59
2023-04-30T04:54:33.583Z,100280.03
2023-04-30T04:57:00.192Z,100283.16
2023-04-30T04:59:26.846Z,100286.03
2023-04-30T05:01:53.617Z,100284.84
2023-04-30T05:04:20.290Z,100289.94
2023-04-30T05:06:47.005Z,100285.97
2023-04-30T05:09:13.752Z,100290.03
2023-04-30T05:11:41.677Z,100305.34
2023-04-30T05:14:08.298Z,100305.75
2023-04-30T05:16:34.926Z,100302.72
2023-04-30T05:19:01.549Z,100297.03
2023-04-30T05:21:29.790Z,100299.13
2023-04-30T05:23:56.418Z,100299.50
2023-04-30T05:26:24.440Z,100303.63
2023-04-30T05:28:52.457Z,100314.97
2023-04-30T05:31:20.908Z,100307.59
2023-04-30T05:33:47.864Z,100308.38
2023-04-30T05:36:14.691Z,100308.31
2023-04-30T05:38:41.583Z,100308.84
2023-04-30T05:41:10.669Z,100303.66
2023-04-30T05:43:37.229Z,100312.63
2023-04-30T05:46:04.126Z,100311.16
2023-04-30T05:48:30.996Z,100311.38
2023-04-30T05:50:57.572Z,100323.25
2023-04-30T05:53:24.359Z,100327.19
2023-04-30T05:55:51.193Z,100328.91
2023-04-30T05:58:17.734Z,100313.88
2023-04-30T06:00:44.373Z,100321.41
2023-04-30T06:03:11.098Z,100323.94
2023-04-30T06:05:37.859Z,100322.78
2023-04-30T06:08:04.623Z,100325.66
2023-04-30T06:10:31.296Z,100324.69
2023-04-30T06:12:57.996Z,100325.00
2023-04-30T06:15:24.635Z,100333.50
2023-04-30T06:17:51.292Z,100330.94
2023-04-30T06:20:18.098Z,100336.56
2023-04-30T06:22:44.629Z,100332.56
2023-04-30T06:25:11.213Z,100330.84
2023-04-30T06:27:37.776Z,100327.53
2023-04-30T06:30:04.747Z,100326.38
2023-04-30T06:32:31.380Z,100326.41
2023-04-30T06:34:58.039Z,100327.16
2023-04-30T06:37:24.578Z,100321.59
2023-04-30T06:39:51.785Z,100329.59
2023-04-30T06:42:18.360Z,100326.94
2023-04-30T06:44:45.720Z,100328.16
2023-04-30T06:47:12.261Z,100322.09
2023-04-30T06:49:38.882Z,100319.09
2023-04-30T06:52:05.467Z,100313.19
2023-04-30T06:54:32.051Z,100307.09
2023-04-30T06:56:58.605Z,100312.56
2023-04-30T06:59:25.172Z,100305.06
2023-04-30T07:01:51.779Z,100300.16
2023-04-30T07:04:18.978Z,100306.41
2023-04-30T07:06:45.636Z,100297.44
2023-04-30T07:09:12.944Z,100298.75
2023-04-30T07:11:40.036Z,100304.03
2023-04-30T07:14:06.701Z,100300.25
2023-04-30T07:16:33.537Z,100297.53
2023-04-30T07:19:00.309Z,100299.72
2023-04-30T07:21:27.598Z,100305.34
2023-04-30T07:23:54.517Z,100307.34
2023-04-30T07:26:21.272Z,100314.25
2023-04-30T07:28:48.789Z,100312.25
2023-04-30T07:31:15.362Z,100314.31
2023-04-30T07:33:42.473Z,100312.59
2023-04-30T07:36:09.106Z,100307.34
2023-04-30T07:38:35.670Z,100314.44
2023-04-30T07:41:02.991Z,100310.88
2023-04-30T07:43:30.623Z,100313.41
2023-04-30T07:45:58.439Z,100318.31
2023-04-30T07:48:25.040Z,100317.94
2023-04-30T07:50:52.882Z,100322.28
2023-04-30T07:53:19.864Z,100325.50
2023-04-30T07:55:46.636Z,100322.88
2023-04-30T07:58:13.228Z,100323.72
2023-04-30T08:00:39.819Z,100332.69
2023-04-30T08:03:06.629Z,100331.31
2023-04-30T08:05:33.405Z,100325.56
2023-04-30T08:08:00.862Z,100329.09
2023-04-30T08:10:28.279Z,100334.44
2023-04-30T08:12:55.034Z,100333.13
2023-04-30T08:15:21.992Z,100335.94
2023-04-30T08:17:52.044Z,100329.94
2023-04-30T08:20:19.055Z,100330.56
2023-04-30T08:22:46.481Z,100334.41
2023-04-30T08:25:13.248Z,100335.16
2023-04-30T08:27:40.153Z,100322.44
2023-04-30T08:30:07.744Z,100339.06
2023-04-30T08:32:38.073Z,100330.72
2023-04-30T08:35:05.647Z,100338.41
2023-04-30T08:37:32.406Z,100334.50
2023-04-30T08:39:59.935Z,100337.13
2023-04-30T08:42:35.936Z,100336.59
2023-04-30T08:45:03.763Z,100339.59
2023-04-30T08:47:30.983Z,100344.25
2023-04-30T08:49:57.675Z,100344.13
2023-04-30T08:52:27.004Z,100332.63
2023-04-30T08:54:55.049Z,100337.03
2023-04-30T08:57:21.714Z,100331.75
2023-04-30T08:59:48.348Z,100331.56
2023-04-30T09:02:14.916Z,100329.47
2023-04-30T09:04:41.511Z,100324.78
2023-04-30T09:09:39.488Z,100325.41
2023-04-30T09:12:20.113Z,100326.03
2023-04-30T09:15:01.632Z,100326.31
2023-04-30T09:17:28.722Z,100324.03
2023-04-30T09:20:06.785Z,100317.47
2023-04-30T09:22:33.361Z,100327.16
2023-04-30T09:24:59.917Z,100326.81
2023-04-30T09:27:27.116Z,100316.47
2023-04-30T09:29:53.787Z,100316.72
2023-04-30T09:32:20.948Z,100312.50
2023-04-30T09:34:47.879Z,100318.66
2023-04-30T09:37:15.911Z,100305.63
2023-04-30T09:39:55.148Z,100314.53
2023-04-30T09:42:22.493Z,100316.88
2023-04-30T09:44:49.212Z,100312.22
2023-04-30T09:47:20.404Z,100297.31
2023-04-30T09:49:54.804Z,100308.41
2023-04-30T09:52:21.784Z,100308.25
2023-04-30T09:54:48.623Z,100300.38
2023-04-30T09:57:16.328Z,100303.66
2023-04-30T09:59:47.182Z,100304.78
2023-04-30T10:02:20.181Z,100298.75
2023-04-30T10:04:53.912Z,100304.22
2023-04-30T10:07:22.662Z,100293.84
2023-04-30T10:09:53.659Z,100295.94
2023-04-30T10:12:43.220Z,100298.28
2023-04-30T10:15:20.758Z,100302.09
2023-04-30T10:17:53.336Z,100299.38
2023-04-30T10:20:22.020Z,100304.00
2023-04-30T10:22:48.987Z,100300.41
2023-04-30T10:25:16.888Z,100300.34
2023-04-30T10:27:43.459Z,100286.25
2023-04-30T10:30:11.431Z,100292.91
2023-04-30T10:32:49.819Z,100287.91
2023-04-30T10:35:24.393Z,100298.28
2023-04-30T10:37:54.351Z,100294.59
2023-04-30T10:40:20.956Z,100296.56
2023-04-30T10:42:49.621Z,100293.88
2023-04-30T10:45:16.678Z,100285.91
2023-04-30T10:47:45.838Z,100278.28
2023-04-30T10:50:13.328Z,100295.56
2023-04-30T10:52:39.994Z,100290.88
2023-04-30T10:55:08.630Z,100289.59
2023-04-30T10:57:46.616Z,100280.72
2023-04-30T11:00:14.499Z,100280.66
2023-04-30T11:02:48.761Z,100281.13
2023-04-30T11:05:19.581Z,100274.06
2023-04-30T11:07:48.844Z,100275.38
2023-04-30T11:10:16.034Z,100273.47
2023-04-30T11:12:48.943Z,100274.09
2023-04-30T11:15:18.614Z,100281.41
2023-04-30T11:17:49.070Z,100276.91
2023-04-30T11:20:25.633Z,100280.53
2023-04-30T11:23:11.569Z,100287.28
2023-04-30T11:25:48.310Z,100286.25
2023-04-30T11:28:18.285Z,100288.78
2023-04-30T11:30:55.530Z,100290.69
2023-04-30T11:33:23.816Z,100282.06
2023-04-30T11:35:53.747Z,100271.53
2023-04-30T11:38:27.866Z,100283.53
2023-04-30T11:40:55.106Z,100284.19
2023-04-30T11:43:29.702Z,100283.13
2023-04-30T11:46:01.886Z,100280.78
2023-04-30T11:48:33.455Z,100285.38
2023-04-30T11:51:02.609Z,100279.19
2023-04-30T11:53:32.945Z,100270.38
2023-04-30T11:56:03.737Z,100283.03
2023-04-30T11:58:34.441Z,100292.91
2023-04-30T12:01:01.579Z,100290.28
2023-04-30T12:03:29.351Z,100287.81
2023-04-30T12:05:56.173Z,100287.16
2023-04-30T12:08:23.723Z,100287.88
2023-04-30T12:10:50.312Z,100285.25
2023-04-30T12:13:16.871Z,100274.91
2023-04-30T12:15:43.582Z,100277.22
2023-04-30T12:18:14.088Z,100276.72
2023-04-30T12:20:42.236Z,100272.56
2023-04-30T12:23:09.406Z,100272.41
2023-04-30T12:25:45.731Z,100269.53
2023-04-30T12:28:12.605Z,100269.75
2023-04-30T12:30:39.363Z,100267.22
2023-04-30T12:33:06.194Z,100258.66
2023-04-30T12:35:32.846Z,100267.22
2023-04-30T12:38:07.416Z,100253.53
2023-04-30T12:40:34.462Z,100250.91
2023-04-30T12:43:05.679Z,100250.78
2023-04-30T12:45:52.944Z,100250.75
2023-04-30T12:48:25.027Z,100246.97
2023-04-30T12:50:54.860Z,100250.38
2023-04-30T12:53:22.394Z,100245.81
2023-04-30T12:56:27.648Z,100242.47
2023-04-30T12:58:55.662Z,100240.03
2023-04-30T13:01:24.451Z,100239.53
2023-04-30T13:03:52.683Z,100245.19
2023-04-30T13:06:21.745Z,100232.13
2023-04-30T13:08:57.956Z,100232.13
2023-04-30T13:11:26.984Z,100228.19
2023-04-30T13:13:55.748Z,100223.34
2023-04-30T13:16:24.709Z,100221.03
2023-04-30T13:18:52.055Z,100211.31
2023-04-30T13:21:18.661Z,100214.78
2023-04-30T13:23:52.562Z,100208.78
2023-04-30T13:26:22.189Z,100212.69
2023-04-30T13:28:48.752Z,100211.38
2023-04-30T13:31:15.801Z,100218.88
2023-04-30T13:33:42.514Z,100222.47
2023-04-30T13:36:09.101Z,100218.09
2023-04-30T13:38:35.695Z,100216.47
2023-04-30T13:41:02.225Z,100218.81
2023-04-30T13:43:28.840Z,100219.97
2023-04-30T13:45:55.483Z,100227.59
2023-04-30T13:48:22.097Z,100231.78
2023-04-30T13:50:48.858Z,100222.72
2023-04-30T13:53:16.121Z,100224.41
2023-04-30T13:55:42.932Z,100223.66
2023-04-30T13:58:09.602Z,100227.97
2023-04-30T14:00:36.148Z,100228.84
2023-04-30T14:03:03.238Z,100223.34
2023-04-30T14:05:31.053Z,100223.63
2023-04-30T14:07:57.592Z,100228.28
2023-04-30T14:10:24.153Z,100221.50
2023-04-30T14:12:51.233Z,100224.94
2023-04-30T14:15:17.917Z,100217.16
2023-04-30T14:17:44.561Z,100224.09
2023-04-30T14:20:12.163Z,100219.84
2023-04-30T14:22:38.791Z,100213.97
2023-04-30T14:25:05.969Z,100208.38
2023-04-30T14:27:32.689Z,100204.78
2023-04-30T14:29:59.260Z,100208.66
2023-04-30T14:32:27.015Z,100207.56
2023-04-30T14:34:53.977Z,100206.44
2023-04-30T14:37:20.567Z,100214.81
2023-04-30T14:39:47.132Z,100210.69
2023-04-30T14:42:13.683Z,100204.78
2023-04-30T14:44:40.689Z,100212.44
2023-04-30T14:47:07.764Z,100211.31
2023-04-30T14:49:34.474Z,100204.22
2023-04-30T14:52:01.093Z,100216.31
2023-04-30T14:54:27.672Z,100221.59
2023-04-30T14:56:54.241Z,100222.50
2023-04-30T14:59:20.886Z,100221.19
2023-04-30T15:01:47.456Z,100229.28
2023-04-30T15:04:14.075Z,100225.69
2023-04-30T15:06:40.711Z,100228.22
2023-04-30T15:09:07.561Z,100234.88
2023-04-30T15:11:34.179Z,100231.81
2023-04-30T15:14:00.765Z,100234.34
2023-04-30T15:16:27.602Z,100240.16
2023-04-30T15:18:54.299Z,100240.41
2023-04-30T15:21:20.924Z,100254.78
2023-04-30T15:23:47.742Z,100261.47
2023-04-30T15:26:14.502Z,100262.25
2023-04-30T15:28:41.122Z,100281.28
2023-04-30T15:31:07.753Z,100284.41
2023-04-30T15:33:39.533Z,100286.66
2023-04-30T15:36:06.604Z,100294.50
2023-04-30T15:38:33.288Z,100289.69
2023-04-30T15:40:59.901Z,100296.41
2023-04-30T15:43:26.470Z,100313.47
2023-04-30T15:45:53.269Z,100308.31
2023-04-30T15:48:19.876Z,100311.56
2023-04-30T15:50:46.428Z,100314.59
2023-04-30T15:53:12.998Z,100315.81
2023-04-30T15:55:39.679Z,100317.22
2023-04-30T15:58:06.326Z,100316.03
2023-04-30T16:00:33.686Z,100321.91
2023-04-30T16:03:00.613Z,100318.69
2023-04-30T16:05:27.481Z,100324.28
2023-04-30T16:07:54.613Z,100324.34
2023-04-30T16:10:21.624Z,100326.50
2023-04-30T16:12:48.671Z,100329.56
2023-04-30T16:15:15.396Z,100342.47
2023-04-30T16:17:42.038Z,100324.63
2023-04-30T16:20:09.060Z,100336.50
2023-04-30T16:22:35.704Z,100329.34
2023-04-30T16:25:02.342Z,100332.94
2023-04-30T16:27:29.591Z,100331.75
2023-04-30T16:29:56.514Z,100335.34
2023-04-30T16:32:23.424Z,100332.16
2023-04-30T16:34:49.978Z,100337.63
2023-04-30T16:37:16.548Z,100326.91
2023-04-30T16:39:43.107Z,100334.25
2023-04-30T16:42:09.885Z,100338.44
2023-04-30T16:44:36.974Z,100335.44
2023-04-30T16:47:03.500Z,100334.38
2023-04-30T16:49:30.105Z,100334.28
2023-04-30T16:51:56.882Z,100341.44
2023-04-30T16:54:23.725Z,100342.56
2023-04-30T16:56:50.384Z,100347.16
2023-04-30T16:59:16.949Z,100344.22
2023-04-30T17:01:43.659Z,100338.97
2023-04-30T17:04:12.022Z,100345.44
2023-04-30T17:06:39.369Z,100341.50
2023-04-30T17:09:06.626Z,100343.47
2023-04-30T17:11:34.087Z,100344.78
2023-04-30T17:14:01.160Z,100348.34
2023-04-30T17:16:27.969Z,100341.69
2023-04-30T17:18:54.664Z,100349.19
2023-04-30T17:21:21.333Z,100344.22
2023-04-30T17:23:48.148Z,100348.53
2023-04-30T17:26:14.732Z,100347.78
2023-04-30T17:28:41.359Z,100353.72
2023-04-30T17:31:09.391Z,100344.34
2023-04-30T17:33:36.114Z,100347.41
2023-04-30T17:36:03.916Z,100345.41
2023-04-30T17:38:30.594Z,100357.53
2023-04-30T17:40:57.751Z,100358.41
2023-04-30T17:43:24.588Z,100355.38
2023-04-30T17:45:52.043Z,100353.53
2023-04-30T17:48:19.561Z,100355.31
2023-04-30T17:50:46.351Z,100366.88
2023-04-30T17:53:12.947Z,100359.22
2023-04-30T17:55:39.793Z,100357.91
2023-04-30T17:58:10.062Z,100371.31
2023-04-30T18:00:39.432Z,100368.28
2023-04-30T18:03:06.635Z,100367.94
2023-04-30T18:05:35.593Z,100363.53
2023-04-30T18:08:02.799Z,100380.16
2023-04-30T18:10:29.376Z,100376.25
2023-04-30T18:12:58.937Z,100371.34
2023-04-30T18:15:26.057Z,100368.81
2023-04-30T18:17:53.215Z,100382.88
2023-04-30T18:20:21.023Z,100382.56
2023-04-30T18:22:47.856Z,100385.25
2023-04-30T18:25:16.423Z,100385.09
2023-04-30T18:27:43.088Z,100393.88
2023-04-30T18:30:10.420Z,100398.81
2023-04-30T18:32:37.594Z,100411.16
2023-04-30T18:35:04.766Z,100411.66
2023-04-30T18:37:31.945Z,100413.00
2023-04-30T18:39:59.237Z,100418.22
2023-04-30T18:42:25.900Z,100418.56
2023-04-30T18:44:52.764Z,100419.38
2023-04-30T18:47:19.690Z,100424.91
2023-04-30T18:49:46.306Z,100424.84
2023-04-30T18:52:12.914Z,100436.69
2023-04-30T18:54:41.372Z,100430.75
2023-04-30T18:57:10.967Z,100444.16
2023-04-30T18:59:39.140Z,100445.31
2023-04-30T19:02:06.329Z,100446.50
2023-04-30T19:04:32.970Z,100443.09
2023-04-30T19:06:59.556Z,100444.97
2023-04-30T19:09:26.169Z,100438.00
2023-04-30T19:11:53.213Z,100446.94
2023-04-30T19:14:19.874Z,100440.78
2023-04-30T19:16:46.644Z,100439.41
2023-04-30T19:19:13.910Z,100445.78
2023-04-30T19:21:40.541Z,100452.19
2023-04-30T19:24:07.354Z,100459.13
2023-04-30T19:26:35.959Z,100459.25
2023-04-30T19:29:03.454Z,100457.50
2023-04-30T19:31:30.116Z,100462.53
2023-04-30T19:34:00.967Z,100457.84
2023-04-30T19:36:28.318Z,100462.03
2023-04-30T19:38:55.608Z,100463.97
2023-04-30T19:41:22.286Z,100465.75
2023-04-30T19:43:49.170Z,100466.94
2023-04-30T19:46:16.144Z,100469.00
2023-04-30T19:48:44.701Z,100468.78
2023-04-30T19:51:11.693Z,100472.50
2023-04-30T19:53:38.347Z,100474.63
2023-04-30T19:56:04.927Z,100475.63
2023-04-30T19:58:31.574Z,100476.97
2023-04-30T20:00:58.167Z,100482.50
2023-04-30T20:03:25.575Z,100476.31
2023-04-30T20:05:52.511Z,100475.06
2023-04-30T20:08:19.116Z,100478.59
2023-04-30T20:10:47.082Z,100480.63
2023-04-30T20:13:13.904Z,100488.19
2023-04-30T20:15:40.806Z,100486.06
2023-04-30T20:18:07.519Z,100484.00
2023-04-30T20:20:34.153Z,100491.13
2023-04-30T20:23:14.027Z,100486.19
2023-04-30T20:25:42.903Z,100490.34
2023-04-30T20:28:09.482Z,100500.00
2023-04-30T20:30:36.163Z,100494.63
2023-04-30T20:33:03.872Z,100511.44
2023-04-30T20:35:31.517Z,100517.41
2023-04-30T20:37:58.158Z,100517.69
2023-04-30T20:40:25.213Z,100527.59
2023-04-30T20:42:52.282Z,100527.72
2023-04-30T20:45:19.568Z,100531.56
2023-04-30T20:47:46.571Z,100528.56
2023-04-30T20:50:14.727Z,100533.09
2023-04-30T20:52:41.645Z,100538.75
2023-04-30T20:55:08.779Z,100539.16
2023-04-30T20:57:36.493Z,100533.75
2023-04-30T21:00:05.006Z,100536.00
2023-04-30T21:02:31.672Z,100542.97
2023-04-30T21:04:58.598Z,100546.78
2023-04-30T21:07:25.212Z,100543.19
2023-04-30T21:09:51.768Z,100554.25
2023-04-30T21:12:18.316Z,100563.59
2023-04-30T21:14:45.070Z,100568.25
2023-04-30T21:17:11.702Z,100573.19
2023-04-30T21:19:38.270Z,100577.97
2023-04-30T21:22:05.274Z,100575.88
2023-04-30T21:24:31.937Z,100581.63
2023-04-30T21:27:00.079Z,100586.53
2023-04-30T21:29:26.726Z,100583.41
2023-04-30T21:31:55.152Z,100586.47
2023-04-30T21:34:21.845Z,100584.09
2023-04-30T21:36:48.399Z,100592.56
2023-04-30T21:39:14.963Z,100598.53
2023-04-30T21:41:41.538Z,100596.53
2023-04-30T21:44:08.143Z,100601.06
2023-04-30T21:46:34.775Z,100603.16
2023-04-30T21:49:01.375Z,100599.53
2023-04-30T21:51:27.958Z,100601.78
2023-04-30T21:53:54.541Z,100604.81
2023-04-30T21:56:21.803Z,100615.41
2023-04-30T21:58:48.478Z,100617.03
2023-04-30T22:01:15.064Z,100614.72
2023-04-30T22:03:42.247Z,100620.34
2023-04-30T22:06:08.965Z,100623.66
2023-04-30T22:08:35.965Z,100627.63
2023-04-30T22:11:04.613Z,100626.28
2023-04-30T22:13:31.383Z,100619.44
2023-04-30T22:15:58.076Z,100624.09
2023-04-30T22:18:25.065Z,100626.06
2023-04-30T22:20:52.488Z,100626.56
2023-04-30T22:23:21.200Z,100627.69
2023-04-30T22:25:48.305Z,100625.63
2023-04-30T22:28:20.932Z,100632.22
2023-04-30T22:30:47.553Z,100636.16
2023-04-30T22:33:14.228Z,100642.72
2023-04-30T22:35:40.965Z,100632.84
2023-04-30T22:38:07.691Z,100637.47
2023-04-30T22:40:37.892Z,100636.66
2023-04-30T22:43:05.233Z,100637.59
2023-04-30T22:45:32.832Z,100642.13
2023-04-30T22:48:01.606Z,100643.72
2023-04-30T22:50:30.054Z,100644.94
2023-04-30T22:52:56.797Z,100641.25
2023-04-30T22:55:23.560Z,100645.78
2023-04-30T22:57:50.114Z,100652.22
2023-04-30T23:00:18.815Z,100646.47
2023-04-30T23:02:45.466Z,100637.19
2023-04-30T23:05:12.978Z,100643.66
2023-04-30T23:07:39.744Z,100645.00
2023-04-30T23:10:07.163Z,100648.50
2023-04-30T23:12:35.092Z,100652.75
2023-04-30T23:15:02.082Z,100647.47
2023-04-30T23:17:28.722Z,100654.06
2023-04-30T23:19:55.593Z,100653.09
2023-04-30T23:22:22.364Z,100660.41
2023-04-30T23:24:48.924Z,100657.44
2023-04-30T23:27:16.253Z,100654.47
2023-04-30T23:29:43.040Z,100655.69
2023-04-30T23:32:09.814Z,100657.13
2023-04-30T23:34:36.408Z,100654.66
2023-04-30T23:37:03.049Z,100655.09
2023-04-30T23:39:29.617Z,100653.13
2023-04-30T23:41:56.683Z,100658.50
2023-04-30T23:44:23.250Z,100655.28
2023-04-30T23:46:51.087Z,100656.38
2023-04-30T23:49:17.994Z,100658.97
2023-04-30T23:51:45.706Z,100657.50
2023-04-30T23:54:12.314Z,100656.03
2023-04-30T23:56:38.908Z,100647.66
2023-04-30T23:59:05.501Z,100651.53
